Time;durP1;ratioP1;P1;durP2;ratioP2;P2;SDS_P1;SDS_P2;PMS_P1;PMS_P2;Temp;Humidity;BMP_temperature;BMP_pressure;BME280_temperature;BME280_humidity;BME280_pressure;Samples;Min_cycle;Max_cycle;Signal;HPM_P1;HPM_P2
2022/04/12 00:00:10;;;;;;;45.43;13.20;;;7.90;25.50;;;;;;5044600;28;20458;-59
2022/04/12 00:02:36;;;;;;;45.80;13.57;;;7.90;25.50;;;;;;5046472;28;20623;-58
2022/04/12 00:05:03;;;;;;;45.50;12.80;;;7.90;25.40;;;;;;5051542;28;20533;-58
2022/04/12 00:07:30;;;;;;;45.90;12.40;;;7.90;25.40;;;;;;5041171;28;20478;-59
2022/04/12 00:09:58;;;;;;;46.83;12.43;;;7.90;25.80;;;;;;5042567;28;20459;-58
2022/04/12 00:12:25;;;;;;;42.23;11.73;;;7.90;25.70;;;;;;5040199;28;20978;-58
2022/04/12 00:14:52;;;;;;;45.47;13.60;;;7.80;25.70;;;;;;5050439;28;20478;-59
2022/04/12 00:20:04;;;;;;;44.63;13.67;;;7.80;25.90;;;;;;5043750;28;20527;-59
2022/04/12 00:22:31;;;;;;;44.23;13.10;;;7.70;26.00;;;;;;5041737;28;20478;-57
2022/04/12 00:25:00;;;;;;;45.90;13.00;;;7.70;26.30;;;;;;5044153;28;20489;-59
2022/04/12 00:27:27;;;;;;;45.37;13.27;;;7.60;26.40;;;;;;5043747;28;20454;-58
2022/04/12 00:29:54;;;;;;;47.90;15.40;;;7.60;26.40;;;;;;5039848;28;20458;-58
2022/04/12 00:32:21;;;;;;;43.47;12.93;;;7.60;26.60;;;;;;5038552;28;21030;-58
2022/04/12 00:34:47;;;;;;;47.40;14.57;;;7.50;26.80;;;;;;5042571;28;20457;-59
2022/04/12 00:37:14;;;;;;;44.43;13.07;;;7.50;26.70;;;;;;5042254;28;20518;-59
2022/04/12 00:39:41;;;;;;;46.47;13.20;;;7.50;26.90;;;;;;5045518;28;20465;-56
2022/04/12 00:42:09;;;;;;;43.70;13.27;;;7.50;27.10;;;;;;5042287;28;20474;-59
2022/04/12 00:44:36;;;;;;;44.80;13.57;;;7.40;27.50;;;;;;5049082;28;21005;-58
2022/04/12 00:47:03;;;;;;;44.43;12.13;;;7.40;27.50;;;;;;5051816;28;20454;-59
2022/04/12 00:49:30;;;;;;;45.47;12.97;;;7.40;27.60;;;;;;5044153;28;20847;-57
2022/04/12 00:51:58;;;;;;;43.17;12.97;;;7.30;27.80;;;;;;5048383;28;20524;-59
2022/04/12 00:54:26;;;;;;;42.27;12.27;;;7.30;28.00;;;;;;5048396;28;20989;-58
2022/04/12 00:56:53;;;;;;;45.33;13.47;;;7.30;28.20;;;;;;5047275;28;20859;-58
2022/04/12 00:59:21;;;;;;;45.33;12.80;;;7.20;28.10;;;;;;5044452;28;20470;-58
2022/04/12 01:01:48;;;;;;;42.90;12.57;;;7.20;28.30;;;;;;5045302;28;20479;-60
2022/04/12 01:04:15;;;;;;;46.70;13.60;;;7.20;28.20;;;;;;5048654;28;21033;-60
2022/04/12 01:06:43;;;;;;;44.43;12.60;;;7.10;28.30;;;;;;5042921;28;20454;-60
2022/04/12 01:09:09;;;;;;;45.40;13.00;;;7.10;28.20;;;;;;5046754;28;20469;-58
2022/04/12 01:11:37;;;;;;;45.93;12.60;;;7.10;28.60;;;;;;5049113;28;20453;-59
2022/04/12 01:14:04;;;;;;;49.00;14.63;;;7.00;28.40;;;;;;5044960;28;20482;-61
2022/04/12 01:16:32;;;;;;;43.80;13.23;;;7.00;28.50;;;;;;5049034;28;20485;-59
2022/04/12 01:18:59;;;;;;;43.30;13.03;;;7.00;28.60;;;;;;5044040;28;20467;-58
2022/04/12 01:21:28;;;;;;;46.00;12.70;;;7.00;28.60;;;;;;5043027;28;20461;-58
2022/04/12 01:24:00;;;;;;;47.93;13.10;;;6.90;28.70;;;;;;5043225;28;20485;-60
2022/04/12 01:26:27;;;;;;;44.83;13.23;;;6.90;28.70;;;;;;5048368;28;20484;-60
2022/04/12 01:28:54;;;;;;;44.23;13.60;;;6.90;28.90;;;;;;5054993;28;20540;-58
2022/04/12 01:31:20;;;;;;;44.67;12.53;;;6.90;28.90;;;;;;5046586;28;21105;-58
2022/04/12 01:33:47;;;;;;;47.23;14.00;;;6.90;29.00;;;;;;5055015;28;20477;-58
2022/04/12 01:36:14;;;;;;;43.30;12.90;;;6.90;29.10;;;;;;5046128;28;20462;-58
2022/04/12 01:38:41;;;;;;;45.27;13.57;;;7.00;29.20;;;;;;5048924;28;20469;-60
2022/04/12 01:41:09;;;;;;;43.07;12.97;;;6.90;29.00;;;;;;5042677;28;20462;-59
2022/04/12 01:43:36;;;;;;;44.07;12.53;;;6.80;29.10;;;;;;5053173;28;20482;-61
2022/04/12 01:46:03;;;;;;;44.13;13.03;;;6.80;29.40;;;;;;5060802;28;20469;-58
2022/04/12 01:48:29;;;;;;;44.60;13.13;;;6.70;29.30;;;;;;5047985;28;20462;-59
2022/04/12 01:50:56;;;;;;;42.70;13.30;;;6.70;29.40;;;;;;5045574;28;20823;-59
2022/04/12 01:53:23;;;;;;;43.83;12.83;;;6.70;29.60;;;;;;5047921;28;21033;-58
2022/04/12 01:55:50;;;;;;;44.37;12.93;;;6.70;29.60;;;;;;5047978;28;21119;-59
2022/04/12 01:58:18;;;;;;;44.07;13.20;;;6.70;29.60;;;;;;5039182;28;20483;-60
2022/04/12 02:00:44;;;;;;;43.50;13.40;;;6.70;30.00;;;;;;5041729;28;20474;-59
2022/04/12 02:03:11;;;;;;;44.80;13.93;;;6.60;30.20;;;;;;5043190;28;20486;-59
2022/04/12 02:05:39;;;;;;;44.67;14.17;;;6.60;30.10;;;;;;5047468;28;20474;-58
2022/04/12 02:08:07;;;;;;;45.77;13.33;;;6.70;30.30;;;;;;5044028;28;20820;-57
2022/04/12 02:10:34;;;;;;;47.13;13.43;;;6.70;30.30;;;;;;5048041;28;20465;-59
2022/04/12 02:13:01;;;;;;;47.40;13.70;;;6.70;30.00;;;;;;5049043;28;20866;-58
2022/04/12 02:15:29;;;;;;;46.67;15.10;;;6.70;30.20;;;;;;5047750;28;21125;-57
2022/04/12 02:17:55;;;;;;;45.00;13.33;;;6.60;30.30;;;;;;5043699;28;20485;-58
2022/04/12 02:20:22;;;;;;;46.00;13.53;;;6.60;30.30;;;;;;5045885;28;20458;-58
2022/04/12 02:22:49;;;;;;;47.53;14.43;;;6.60;30.50;;;;;;5043732;28;20870;-58
2022/04/12 02:25:16;;;;;;;48.53;14.13;;;6.60;30.30;;;;;;5048873;28;20462;-59
2022/04/12 02:27:42;;;;;;;44.87;12.40;;;6.60;30.50;;;;;;5048514;28;20458;-58
2022/04/12 02:30:11;;;;;;;44.70;13.50;;;6.50;30.70;;;;;;5045888;28;20462;-58
2022/04/12 02:32:39;;;;;;;43.93;12.53;;;6.50;30.70;;;;;;5039859;28;20462;-57
2022/04/12 02:35:07;;;;;;;46.27;14.27;;;6.50;30.60;;;;;;5046344;28;20461;-58
2022/04/12 02:37:34;;;;;;;46.33;15.20;;;6.40;31.00;;;;;;5048314;28;20515;-59
2022/04/12 02:40:02;;;;;;;48.03;14.77;;;6.40;31.30;;;;;;5045941;28;20466;-59
2022/04/12 02:42:29;;;;;;;45.83;13.30;;;6.40;31.20;;;;;;5048892;28;21249;-58
2022/04/12 02:44:55;;;;;;;44.00;13.10;;;6.40;30.90;;;;;;5067272;28;20450;-59
2022/04/12 02:47:24;;;;;;;45.83;13.83;;;6.40;31.00;;;;;;5049520;28;20537;-57
2022/04/12 02:49:52;;;;;;;50.93;14.50;;;6.40;31.10;;;;;;5050904;28;20520;-58
2022/04/12 02:52:19;;;;;;;43.43;12.50;;;6.40;31.10;;;;;;5043632;28;20987;-57
2022/04/12 02:54:46;;;;;;;43.83;13.30;;;6.40;30.90;;;;;;5047517;28;20462;-60
2022/04/12 02:57:13;;;;;;;45.60;13.10;;;6.30;31.00;;;;;;5042305;28;20490;-57
2022/04/12 02:59:39;;;;;;;47.10;15.37;;;6.30;31.00;;;;;;5038711;28;20845;-57
2022/04/12 03:02:06;;;;;;;48.17;14.00;;;6.30;30.90;;;;;;5046114;28;20474;-58
2022/04/12 03:04:33;;;;;;;49.43;13.73;;;6.30;30.80;;;;;;5045957;28;20478;-58
2022/04/12 03:07:01;;;;;;;46.93;14.20;;;6.20;30.90;;;;;;5044083;28;20485;-59
2022/04/12 03:09:28;;;;;;;44.93;13.40;;;6.20;31.00;;;;;;5045939;28;20987;-58
2022/04/12 03:11:55;;;;;;;45.60;14.27;;;6.10;30.90;;;;;;5045414;28;20462;-59
2022/04/12 03:14:22;;;;;;;45.57;14.30;;;6.10;31.20;;;;;;5046493;28;20999;-58
2022/04/12 03:16:49;;;;;;;45.03;14.30;;;6.00;31.20;;;;;;5055123;28;20473;-58
2022/04/12 03:19:15;;;;;;;47.57;14.80;;;6.00;31.30;;;;;;5054905;28;20453;-58
2022/04/12 03:21:42;;;;;;;48.40;13.93;;;6.00;31.20;;;;;;5036031;28;20542;-56
2022/04/12 03:24:10;;;;;;;44.70;13.13;;;6.00;31.50;;;;;;5047107;28;20995;-58
2022/04/12 03:26:37;;;;;;;47.60;13.53;;;5.90;31.70;;;;;;5046521;28;20454;-58
2022/04/12 03:29:04;;;;;;;43.30;13.00;;;5.90;31.60;;;;;;5046704;28;20465;-58
2022/04/12 03:31:31;;;;;;;49.03;14.77;;;5.80;31.80;;;;;;5049282;28;20474;-58
2022/04/12 03:33:57;;;;;;;47.00;14.07;;;5.80;31.70;;;;;;5046920;28;20493;-57
2022/04/12 03:36:25;;;;;;;49.50;14.20;;;5.70;31.60;;;;;;5055269;28;20466;-59
2022/04/12 03:38:52;;;;;;;50.57;16.63;;;5.70;31.80;;;;;;5055994;28;20477;-58
2022/04/12 03:41:23;;;;;;;47.50;13.90;;;5.70;32.10;;;;;;5050489;28;20483;-58
2022/04/12 03:43:50;;;;;;;46.00;15.20;;;5.70;32.20;;;;;;5047193;28;20482;-57
2022/04/12 03:46:17;;;;;;;47.10;15.40;;;5.60;32.30;;;;;;5048485;28;21217;-58
2022/04/12 03:48:44;;;;;;;46.37;15.17;;;5.60;32.30;;;;;;5046492;28;20458;-60
2022/04/12 03:51:11;;;;;;;50.03;15.97;;;5.60;32.30;;;;;;5049773;28;20867;-59
2022/04/12 03:53:38;;;;;;;50.63;17.20;;;5.60;32.30;;;;;;5037663;28;20535;-59
2022/04/12 03:56:07;;;;;;;47.40;16.37;;;5.50;32.30;;;;;;5042331;28;20470;-59
2022/04/12 03:58:35;;;;;;;50.07;17.50;;;5.50;32.50;;;;;;5043591;28;20482;-58
2022/04/12 04:01:03;;;;;;;49.13;15.90;;;5.50;32.60;;;;;;5035787;28;21059;-60
2022/04/12 04:03:30;;;;;;;50.57;17.40;;;5.50;32.70;;;;;;5043451;28;20988;-58
2022/04/12 04:05:57;;;;;;;49.10;16.00;;;5.40;32.90;;;;;;5047215;28;21055;-59
2022/04/12 04:08:23;;;;;;;47.80;15.20;;;5.50;33.10;;;;;;5049225;28;20458;-59
2022/04/12 04:10:50;;;;;;;49.50;17.07;;;5.40;32.80;;;;;;5041680;28;21093;-60
2022/04/12 04:13:17;;;;;;;47.30;16.53;;;5.40;33.00;;;;;;5046083;28;20478;-59
2022/04/12 04:15:46;;;;;;;48.93;17.43;;;5.30;33.20;;;;;;5044216;28;20465;-58
2022/04/12 04:18:13;;;;;;;48.87;17.27;;;5.30;33.30;;;;;;5048002;28;20535;-59
2022/04/12 04:20:40;;;;;;;49.50;16.57;;;5.30;33.20;;;;;;5047870;28;20465;-58
2022/04/12 04:23:07;;;;;;;48.77;17.97;;;5.30;33.30;;;;;;5047152;28;20486;-58
2022/04/12 04:25:34;;;;;;;50.93;17.50;;;5.30;33.20;;;;;;5049079;28;20469;-60
2022/04/12 04:28:01;;;;;;;51.80;16.70;;;5.30;33.60;;;;;;5054709;28;20469;-58
2022/04/12 04:30:28;;;;;;;48.97;16.40;;;5.30;33.60;;;;;;5060525;28;20828;-58
2022/04/12 04:32:56;;;;;;;48.67;15.87;;;5.30;33.50;;;;;;5052880;28;20485;-58
2022/04/12 04:35:23;;;;;;;50.17;17.47;;;5.30;33.80;;;;;;5047797;28;20462;-57
2022/04/12 04:37:50;;;;;;;51.47;16.00;;;5.30;33.60;;;;;;5045667;28;21045;-58
2022/04/12 04:40:18;;;;;;;48.13;15.03;;;5.30;33.70;;;;;;5049737;28;20504;-58
2022/04/12 04:42:46;;;;;;;47.57;14.67;;;5.30;33.90;;;;;;5047583;28;21019;-58
2022/04/12 04:45:13;;;;;;;48.57;14.90;;;5.30;33.80;;;;;;5049356;28;20458;-60
2022/04/12 04:47:49;;;;;;;47.10;13.83;;;5.20;33.50;;;;;;5054137;28;20476;-59
2022/04/12 04:50:18;;;;;;;47.53;14.90;;;5.20;33.30;;;;;;5047709;28;20475;-57
2022/04/12 04:52:45;;;;;;;48.37;14.40;;;5.20;33.20;;;;;;5052045;28;20539;-58
2022/04/12 04:55:13;;;;;;;48.60;15.37;;;5.20;33.40;;;;;;5049201;28;20469;-58
2022/04/12 04:57:40;;;;;;;51.47;15.33;;;5.30;33.60;;;;;;5058725;28;20473;-58
2022/04/12 05:00:09;;;;;;;46.30;14.23;;;5.30;33.70;;;;;;5061567;28;20457;-59
2022/04/12 05:02:36;;;;;;;46.20;14.07;;;5.40;33.20;;;;;;5048080;28;20839;-58
2022/04/12 05:05:03;;;;;;;45.27;13.07;;;5.50;33.20;;;;;;5041794;28;20817;-58
2022/04/12 05:07:32;;;;;;;47.90;14.17;;;5.70;33.00;;;;;;5062063;28;20453;-59
2022/04/12 05:09:58;;;;;;;45.10;13.27;;;5.90;32.40;;;;;;5059843;28;20466;-59
2022/04/12 05:12:25;;;;;;;52.83;13.43;;;6.10;32.00;;;;;;5055378;28;20497;-59
2022/04/12 05:14:52;;;;;;;48.17;12.80;;;6.40;31.60;;;;;;5051653;28;21130;-58
2022/04/12 05:17:26;;;;;;;43.20;12.97;;;6.70;31.40;;;;;;5068835;28;21231;-59
2022/04/12 05:19:53;;;;;;;43.33;11.53;;;7.00;31.00;;;;;;5056445;28;20462;-58
2022/04/12 05:22:20;;;;;;;42.73;12.00;;;7.30;30.50;;;;;;5066869;28;20457;-58
2022/04/12 05:24:48;;;;;;;45.10;13.10;;;7.40;30.00;;;;;;5050489;28;20466;-58
2022/04/12 05:27:15;;;;;;;44.17;13.00;;;7.60;29.90;;;;;;5060056;28;20466;-59
2022/04/12 05:29:42;;;;;;;43.07;12.83;;;8.00;29.60;;;;;;5068305;28;20468;-58
2022/04/12 05:32:09;;;;;;;43.30;11.93;;;8.40;29.10;;;;;;5065039;28;20473;-60
2022/04/12 05:34:37;;;;;;;44.67;13.17;;;8.80;28.80;;;;;;5048934;28;20490;-59
2022/04/12 05:37:04;;;;;;;53.77;14.73;;;9.10;28.00;;;;;;5051787;28;20512;-59
2022/04/12 05:39:31;;;;;;;46.27;12.40;;;9.30;26.70;;;;;;5067986;28;20484;-59
2022/04/12 05:42:00;;;;;;;43.83;11.80;;;9.50;26.20;;;;;;5060370;28;20461;-59
2022/04/12 05:44:28;;;;;;;43.90;12.63;;;9.60;25.20;;;;;;5056074;28;20489;-59
2022/04/12 05:46:55;;;;;;;44.00;12.30;;;10.00;24.00;;;;;;5049975;28;20454;-59
2022/04/12 05:49:22;;;;;;;43.00;12.87;;;10.50;23.00;;;;;;5065149;28;21221;-59
2022/04/12 05:51:49;;;;;;;41.60;11.83;;;10.90;21.70;;;;;;5060150;28;20458;-59
2022/04/12 05:54:16;;;;;;;41.20;11.60;;;11.50;20.40;;;;;;5052749;28;20497;-58
2022/04/12 05:56:43;;;;;;;40.60;12.10;;;12.20;18.90;;;;;;5050259;28;20462;-58
2022/04/12 05:59:11;;;;;;;42.40;12.53;;;13.20;17.30;;;;;;5063374;28;20477;-58
2022/04/12 06:01:38;;;;;;;41.87;13.30;;;14.50;15.20;;;;;;5063355;28;20473;-58
2022/04/12 06:04:05;;;;;;;41.73;11.63;;;15.00;13.70;;;;;;5067074;28;20508;-59
2022/04/12 06:06:33;;;;;;;39.93;11.70;;;15.50;12.40;;;;;;5051029;28;20470;-57
2022/04/12 06:09:00;;;;;;;39.40;11.90;;;16.30;11.30;;;;;;5056179;28;20458;-59
2022/04/12 06:11:27;;;;;;;37.97;11.30;;;17.30;9.80;;;;;;5051692;28;20458;-59
2022/04/12 06:13:54;;;;;;;40.73;10.83;;;18.40;7.70;;;;;;5060786;28;20880;-59
2022/04/12 06:16:22;;;;;;;41.27;11.30;;;19.60;6.10;;;;;;5051012;28;20461;-59
2022/04/12 06:18:49;;;;;;;36.80;10.60;;;20.60;4.60;;;;;;5055308;28;20477;-60
2022/04/12 06:21:16;;;;;;;35.77;11.00;;;21.50;3.10;;;;;;5064593;28;20466;-60
2022/04/12 06:23:44;;;;;;;35.37;11.60;;;22.40;2.00;;;;;;5053042;28;20516;-59
2022/04/12 06:26:10;;;;;;;35.10;11.10;;;23.40;1.00;;;;;;5054809;28;20486;-59
2022/04/12 06:28:37;;;;;;;34.87;11.00;;;24.10;1.00;;;;;;5047503;28;20450;-60
2022/04/12 06:31:05;;;;;;;33.50;9.83;;;24.90;1.00;;;;;;5049970;28;20465;-59
2022/04/12 06:33:33;;;;;;;32.73;9.53;;;25.60;1.00;;;;;;5067387;28;20500;-60
2022/04/12 06:36:00;;;;;;;33.77;10.30;;;26.80;1.00;;;;;;5058768;28;20462;-60
2022/04/12 06:38:27;;;;;;;32.43;9.47;;;27.90;1.00;;;;;;5055566;28;20482;-60
2022/04/12 06:40:53;;;;;;;32.00;9.77;;;29.10;1.00;;;;;;5048615;28;20467;-60
2022/04/12 06:43:20;;;;;;;32.33;9.93;;;30.10;1.00;;;;;;5063722;28;20481;-59
2022/04/12 06:45:47;;;;;;;32.57;10.37;;;31.00;1.00;;;;;;5060738;28;20457;-59
2022/04/12 06:48:14;;;;;;;31.53;10.30;;;31.70;1.00;;;;;;5059809;28;21112;-60
2022/04/12 06:50:42;;;;;;;32.80;9.27;;;32.60;1.00;;;;;;5048918;28;20454;-59
2022/04/12 06:53:08;;;;;;;30.10;9.37;;;33.30;1.00;;;;;;5061851;28;20481;-60
2022/04/12 06:55:35;;;;;;;30.43;9.70;;;34.00;1.00;;;;;;5062511;28;20469;-60
2022/04/12 06:58:02;;;;;;;30.70;9.50;;;34.40;1.00;;;;;;5065180;28;20485;-60
2022/04/12 07:00:29;;;;;;;29.73;9.17;;;35.00;1.00;;;;;;5047318;28;20466;-60
2022/04/12 07:02:55;;;;;;;27.83;8.63;;;35.80;1.00;;;;;;5054324;28;20477;-60
2022/04/12 07:05:22;;;;;;;29.20;9.80;;;36.50;1.00;;;;;;5059465;28;20458;-60
2022/04/12 07:07:50;;;;;;;28.70;9.10;;;36.90;1.00;;;;;;5063708;28;20457;-60
2022/04/12 07:10:18;;;;;;;28.30;9.77;;;37.50;1.00;;;;;;5051443;28;20466;-58
2022/04/12 07:12:46;;;;;;;30.43;9.07;;;38.20;1.00;;;;;;5050528;28;21201;-59
2022/04/12 07:15:14;;;;;;;28.47;9.23;;;38.70;1.00;;;;;;5064763;28;20552;-59
2022/04/12 07:17:41;;;;;;;30.23;9.63;;;39.20;1.00;;;;;;5062325;28;20850;-59
2022/04/12 07:20:09;;;;;;;30.33;9.93;;;39.70;1.00;;;;;;5059551;28;20504;-59
2022/04/12 07:22:36;;;;;;;29.03;10.13;;;40.20;1.00;;;;;;5050549;28;20477;-58
2022/04/12 07:25:04;;;;;;;27.37;8.73;;;39.90;1.00;;;;;;5057590;28;20462;-59
2022/04/12 07:27:34;;;;;;;29.10;9.30;;;39.80;1.00;;;;;;5065382;28;20470;-60
2022/04/12 07:30:01;;;;;;;27.40;8.97;;;40.20;1.00;;;;;;5050622;28;20477;-59
2022/04/12 07:32:28;;;;;;;26.70;8.17;;;40.30;1.00;;;;;;5047180;28;21120;-59
2022/04/12 07:34:54;;;;;;;27.60;9.27;;;40.10;1.00;;;;;;5057408;28;21017;-59
2022/04/12 07:37:21;;;;;;;27.77;8.33;;;40.00;1.00;;;;;;5058489;28;20468;-59
2022/04/12 07:39:48;;;;;;;27.90;9.00;;;40.10;1.00;;;;;;5061443;28;20482;-59
2022/04/12 07:42:16;;;;;;;28.53;8.77;;;40.40;1.00;;;;;;5046998;28;20472;-59
2022/04/12 07:44:43;;;;;;;28.07;8.47;;;40.50;1.00;;;;;;5053576;28;21050;-60
2022/04/12 07:47:10;;;;;;;27.17;8.90;;;40.60;1.00;;;;;;5062595;28;20454;-59
2022/04/12 07:49:37;;;;;;;27.07;8.20;;;40.60;1.00;;;;;;5044159;28;20453;-59
2022/04/12 07:52:04;;;;;;;28.97;8.77;;;41.00;1.00;;;;;;5044212;28;20527;-59
2022/04/12 07:54:31;;;;;;;28.47;8.60;;;41.40;1.00;;;;;;5050138;28;20470;-59
2022/04/12 07:56:57;;;;;;;27.70;8.37;;;41.60;1.00;;;;;;5061186;28;20842;-59
2022/04/12 07:59:26;;;;;;;28.17;9.30;;;42.00;1.00;;;;;;5062635;28;20949;-59
2022/04/12 08:01:52;;;;;;;27.20;8.90;;;42.30;1.00;;;;;;5059150;28;21057;-59
2022/04/12 08:04:19;;;;;;;25.87;8.40;;;42.70;1.00;;;;;;5061799;28;20488;-60
2022/04/12 08:06:46;;;;;;;25.80;8.27;;;42.90;1.00;;;;;;5058010;28;20468;-60
2022/04/12 08:09:13;;;;;;;26.13;8.40;;;43.00;1.00;;;;;;5055843;28;20454;-60
2022/04/12 08:11:40;;;;;;;26.40;8.63;;;43.00;1.00;;;;;;5056854;28;20466;-59
2022/04/12 08:14:07;;;;;;;25.10;7.80;;;42.90;1.00;;;;;;5047329;28;20493;-60
2022/04/12 08:16:35;;;;;;;28.47;8.90;;;42.60;1.00;;;;;;5056687;28;20462;-60
2022/04/12 08:19:02;;;;;;;24.90;8.10;;;42.00;1.00;;;;;;5061116;28;20579;-58
2022/04/12 08:21:33;;;;;;;26.37;8.47;;;41.50;1.00;;;;;;5060862;28;20467;-60
2022/04/12 08:24:00;;;;;;;26.40;7.90;;;41.20;1.00;;;;;;5046057;28;20500;-60
2022/04/12 08:26:27;;;;;;;28.20;8.37;;;41.20;1.00;;;;;;5050811;28;20462;-60
2022/04/12 08:28:54;;;;;;;26.57;8.97;;;41.30;1.00;;;;;;5058982;28;20457;-60
2022/04/12 08:31:20;;;;;;;28.80;7.87;;;41.50;1.00;;;;;;5056038;28;20473;-60
2022/04/12 08:33:49;;;;;;;25.90;7.07;;;41.30;1.00;;;;;;5048329;28;21045;-60
2022/04/12 08:36:16;;;;;;;27.13;7.37;;;40.40;1.00;;;;;;5056238;28;20464;-59
2022/04/12 08:38:44;;;;;;;26.00;7.30;;;39.50;1.00;;;;;;5059429;28;20481;-60
2022/04/12 08:41:12;;;;;;;26.20;7.60;;;39.00;1.00;;;;;;5061774;28;20457;-59
2022/04/12 08:43:41;;;;;;;26.60;7.40;;;39.00;1.00;;;;;;5044429;28;20498;-59
2022/04/12 08:46:09;;;;;;;27.50;7.50;;;38.60;1.00;;;;;;5047096;28;20512;-60
2022/04/12 08:48:37;;;;;;;28.20;8.30;;;38.10;1.00;;;;;;5061771;28;20457;-60
2022/04/12 08:51:05;;;;;;;27.20;7.33;;;38.10;1.00;;;;;;5057468;28;20461;-60
2022/04/12 08:53:32;;;;;;;26.83;7.77;;;38.30;1.00;;;;;;5056624;28;20485;-59
2022/04/12 08:56:00;;;;;;;26.97;6.57;;;38.80;1.00;;;;;;5047526;28;20509;-59
2022/04/12 08:58:27;;;;;;;27.00;6.70;;;39.30;1.00;;;;;;5056922;28;20460;-59
2022/04/12 09:00:54;;;;;;;25.90;7.17;;;39.70;1.00;;;;;;5059536;28;20465;-59
2022/04/12 09:03:21;;;;;;;25.07;6.23;;;40.20;1.00;;;;;;5055117;28;20485;-58
2022/04/12 09:05:48;;;;;;;26.53;7.40;;;40.70;1.00;;;;;;5050257;28;21105;-59
2022/04/12 09:08:29;;;;;;;31.07;7.47;;;40.60;1.00;;;;;;5063175;28;20461;-59
2022/04/12 09:10:59;;;;;;;27.30;7.27;;;40.30;1.00;;;;;;5066372;28;20630;-61
2022/04/12 09:13:26;;;;;;;25.63;6.50;;;39.90;1.00;;;;;;5066333;28;20482;-60
2022/04/12 09:15:53;;;;;;;26.30;6.63;;;39.70;1.00;;;;;;5052121;28;20477;-60
2022/04/12 09:18:37;;;;;;;25.63;6.60;;;39.60;1.00;;;;;;5055097;28;20461;-61
2022/04/12 09:21:11;;;;;;;27.17;7.00;;;39.70;1.00;;;;;;5062728;28;20464;-60
2022/04/12 09:23:42;;;;;;;25.67;7.60;;;39.90;1.00;;;;;;5049847;28;20486;-62
2022/04/12 09:26:09;;;;;;;26.03;7.30;;;39.70;1.00;;;;;;5053234;28;20466;-61
2022/04/12 09:28:42;;;;;;;26.83;7.77;;;40.10;1.00;;;;;;5054293;28;20460;-61
2022/04/12 09:31:13;;;;;;;27.40;7.50;;;40.60;1.00;;;;;;5060987;28;20991;-60
2022/04/12 09:33:40;;;;;;;27.20;8.20;;;40.70;1.00;;;;;;5048060;28;20485;-60
2022/04/12 09:36:07;;;;;;;25.87;7.53;;;40.40;1.00;;;;;;5049911;28;20462;-61
2022/04/12 09:38:36;;;;;;;26.30;7.20;;;40.20;1.00;;;;;;5053569;28;20831;-59
2022/04/12 09:41:22;;;;;;;25.03;7.20;;;40.20;1.00;;;;;;5065722;28;20465;-61
2022/04/12 09:43:57;;;;;;;26.07;7.00;;;40.60;1.00;;;;;;5055623;28;20569;-61
2022/04/12 09:46:26;;;;;;;25.40;7.30;;;40.80;1.00;;;;;;5054685;28;20461;-60
2022/04/12 09:48:53;;;;;;;27.53;7.90;;;40.90;1.00;;;;;;5056318;28;20453;-60
2022/04/12 09:51:22;;;;;;;27.13;7.43;;;41.10;1.00;;;;;;5058099;28;20466;-60
2022/04/12 09:53:49;;;;;;;26.30;7.60;;;40.90;1.00;;;;;;5064052;28;20971;-60
2022/04/12 09:56:18;;;;;;;25.73;7.00;;;40.40;1.00;;;;;;5056459;28;20633;-62
2022/04/12 09:58:49;;;;;;;26.20;7.30;;;39.90;1.00;;;;;;5050214;28;20951;-61
2022/04/12 10:01:17;;;;;;;27.20;7.70;;;39.30;1.00;;;;;;5051348;28;20469;-60
2022/04/12 10:03:49;;;;;;;26.57;7.47;;;39.10;1.00;;;;;;5058182;28;20477;-60
2022/04/12 10:06:20;;;;;;;26.70;7.63;;;38.80;1.00;;;;;;5053161;28;20462;-59
2022/04/12 10:08:51;;;;;;;26.70;7.80;;;38.60;1.00;;;;;;5047143;28;20486;-58
2022/04/12 10:11:18;;;;;;;28.10;8.10;;;38.90;1.00;;;;;;5055859;28;20470;-60
2022/04/12 10:13:48;;;;;;;26.50;7.93;;;39.20;1.00;;;;;;5061288;28;20479;-61
2022/04/12 10:16:16;;;;;;;28.27;8.50;;;38.70;1.00;;;;;;5060274;28;20458;-60
2022/04/12 10:18:44;;;;;;;26.27;7.10;;;38.00;1.00;;;;;;5049049;28;20566;-60
2022/04/12 10:21:12;;;;;;;26.53;7.40;;;38.20;1.00;;;;;;5057681;28;20468;-60
2022/04/12 10:23:41;;;;;;;28.60;6.83;;;39.00;1.00;;;;;;5060377;28;20488;-59
2022/04/12 10:26:09;;;;;;;25.17;5.93;;;39.90;1.00;;;;;;5062619;28;20974;-59
2022/04/12 10:28:37;;;;;;;26.00;6.40;;;40.60;1.00;;;;;;5049248;28;20477;-59
2022/04/12 10:31:21;;;;;;;25.63;6.30;;;41.00;1.00;;;;;;5049627;28;21009;-59
2022/04/12 10:34:04;;;;;;;25.93;6.77;;;41.40;1.00;;;;;;5055190;28;20519;-60
2022/04/12 10:36:56;;;;;;;27.07;6.40;;;41.50;1.00;;;;;;5049222;28;20504;-61
2022/04/12 10:39:30;;;;;;;26.23;6.73;;;41.80;1.00;;;;;;5038221;28;20571;-59
2022/04/12 10:41:58;;;;;;;24.53;6.10;;;42.10;1.00;;;;;;5050246;28;20489;-60
2022/04/12 10:44:25;;;;;;;25.47;6.27;;;42.20;1.00;;;;;;5056666;28;20474;-60
2022/04/12 10:46:57;;;;;;;27.33;5.70;;;42.10;1.00;;;;;;5063847;28;20453;-60
2022/04/12 10:49:24;;;;;;;24.80;6.20;;;41.40;1.00;;;;;;5049781;28;20496;-59
2022/04/12 10:51:59;;;;;;;24.07;5.80;;;41.20;1.00;;;;;;5054098;28;20837;-59
2022/04/12 10:54:30;;;;;;;25.23;5.40;;;41.00;1.00;;;;;;5063007;28;20982;-59
2022/04/12 10:57:30;;;;;;;27.73;6.80;;;40.40;1.00;;;;;;5061804;28;20489;-59
2022/04/12 11:00:09;;;;;;;25.70;6.57;;;40.30;1.00;;;;;;4991592;28;20484;-59
2022/04/12 11:02:42;;;;;;;25.83;6.63;;;39.50;1.00;;;;;;4983186;28;20488;-60
2022/04/12 11:06:01;;;;;;;26.60;6.50;;;38.20;1.00;;;;;;5033961;28;20457;-59
2022/04/12 11:08:46;;;;;;;26.70;6.60;;;36.20;1.00;;;;;;5064013;28;20449;-59
2022/04/12 11:11:19;;;;;;;25.97;5.83;;;34.20;1.00;;;;;;5048898;28;20458;-59
2022/04/12 11:13:46;;;;;;;27.07;6.63;;;32.90;1.00;;;;;;5060139;28;20484;-59
2022/04/12 11:16:17;;;;;;;28.00;7.90;;;31.80;1.00;;;;;;5056684;28;20465;-59
2022/04/12 11:18:50;;;;;;;27.90;6.03;;;31.10;1.00;;;;;;5064895;28;20519;-59
2022/04/12 11:21:18;;;;;;;28.80;7.10;;;30.50;1.00;;;;;;5047040;28;20482;-59
2022/04/12 11:23:47;;;;;;;30.13;7.70;;;30.10;1.00;;;;;;5059410;28;20491;-59
2022/04/12 11:26:38;;;;;;;30.10;8.57;;;29.40;1.00;;;;;;5064144;28;20457;-58
2022/04/12 11:29:10;;;;;;;31.40;7.17;;;28.80;1.00;;;;;;5060558;28;20490;-59
2022/04/12 11:31:41;;;;;;;29.20;7.10;;;28.30;1.00;;;;;;5047025;28;20568;-59
2022/04/12 11:34:10;;;;;;;32.67;6.67;;;27.80;1.00;;;;;;5056274;28;20485;-60
2022/04/12 11:36:38;;;;;;;30.03;8.47;;;27.30;1.00;;;;;;5056516;28;20457;-61
2022/04/12 11:39:05;;;;;;;30.17;8.47;;;26.80;1.00;;;;;;5063447;28;20521;-59
2022/04/12 11:41:32;;;;;;;31.10;7.63;;;26.50;1.00;;;;;;5048098;28;20493;-58
2022/04/12 11:44:00;;;;;;;31.20;8.00;;;26.10;1.30;;;;;;5054636;28;21018;-59
2022/04/12 11:46:29;;;;;;;30.70;8.07;;;25.80;1.60;;;;;;5063386;28;20460;-59
2022/04/12 11:49:04;;;;;;;30.40;7.77;;;25.70;2.90;;;;;;5055450;28;20465;-59
2022/04/12 11:51:40;;;;;;;30.20;8.17;;;25.40;2.90;;;;;;5054297;28;20465;-58
2022/04/12 11:54:22;;;;;;;30.80;8.23;;;25.20;2.80;;;;;;5047646;28;20473;-60
2022/04/12 11:56:54;;;;;;;34.53;9.13;;;25.00;3.60;;;;;;5047058;28;20978;-58
2022/04/12 11:59:20;;;;;;;31.83;8.23;;;24.90;3.60;;;;;;5060862;28;20480;-59
2022/04/12 12:01:47;;;;;;;32.10;8.50;;;24.80;3.70;;;;;;5053101;28;20852;-60
2022/04/12 12:04:15;;;;;;;30.33;8.50;;;24.70;3.70;;;;;;5047831;28;20489;-59
2022/04/12 12:06:57;;;;;;;29.40;7.37;;;24.60;4.00;;;;;;5050121;28;20461;-59
2022/04/12 12:09:24;;;;;;;30.93;6.93;;;24.50;4.00;;;;;;5057983;28;21107;-59
2022/04/12 12:11:50;;;;;;;29.23;5.00;;;24.40;3.30;;;;;;5047697;28;20466;-60
2022/04/12 12:14:19;;;;;;;29.73;3.87;;;24.30;2.40;;;;;;5057064;28;20480;-58
2022/04/12 12:16:58;;;;;;;27.33;3.17;;;24.20;2.40;;;;;;5059281;28;20452;-58
2022/04/12 12:19:25;;;;;;;27.30;3.60;;;24.20;2.50;;;;;;5062560;28;20457;-61
2022/04/12 12:21:52;;;;;;;28.20;3.60;;;24.20;2.20;;;;;;5045389;28;20994;-61
2022/04/12 12:24:20;;;;;;;27.80;3.00;;;24.00;1.80;;;;;;5047309;28;20860;-60
2022/04/12 12:26:52;;;;;;;26.77;2.97;;;23.90;1.50;;;;;;5038518;28;20571;-59
2022/04/12 12:29:21;;;;;;;28.10;3.03;;;23.80;1.80;;;;;;5041817;28;20485;-59
2022/04/12 12:31:48;;;;;;;28.70;2.90;;;23.70;1.00;;;;;;5044330;28;20474;-60
2022/04/12 12:34:27;;;;;;;27.40;3.40;;;23.50;1.20;;;;;;5047217;28;20478;-58
2022/04/12 12:36:54;;;;;;;27.90;3.10;;;23.30;1.40;;;;;;5045667;28;20449;-59
2022/04/12 12:39:22;;;;;;;27.30;3.10;;;23.20;2.50;;;;;;5053383;28;20462;-59
2022/04/12 12:41:48;;;;;;;28.47;3.37;;;23.20;3.60;;;;;;5043950;28;20481;-59
2022/04/12 12:44:15;;;;;;;32.23;3.80;;;23.20;2.70;;;;;;5052303;28;20488;-58
2022/04/12 12:46:42;;;;;;;29.10;3.00;;;23.00;2.40;;;;;;5055474;28;20466;-60
2022/04/12 12:49:10;;;;;;;27.57;3.17;;;22.90;2.60;;;;;;5062510;28;20458;-59